sensor_id;sensor_type;location;lat;lon;timestamp;P1;durP1;ratioP1;P2;durP2;ratioP2
11761;SDS011;5938;47.098;15.474;2022-09-21T00:02:42;3.90;;;2.93;;
11761;SDS011;5938;47.098;15.474;2022-09-21T00:06:48;4.20;;;2.63;;
11761;SDS011;5938;47.098;15.474;2022-09-21T00:10:51;3.93;;;2.40;;
11761;SDS011;5938;47.098;15.474;2022-09-21T00:14:54;2.23;;;2.03;;
11761;SDS011;5938;47.098;15.474;2022-09-21T00:19:00;1.60;;;1.50;;
11761;SDS011;5938;47.098;15.474;2022-09-21T00:23:04;2.43;;;1.07;;
11761;SDS011;5938;47.098;15.474;2022-09-21T00:27:07;1.07;;;0.97;;
11761;SDS011;5938;47.098;15.474;2022-09-21T00:31:11;1.57;;;1.47;;
11761;SDS011;5938;47.098;15.474;2022-09-21T00:35:16;1.10;;;1.00;;
11761;SDS011;5938;47.098;15.474;2022-09-21T00:39:20;2.30;;;1.10;;
11761;SDS011;5938;47.098;15.474;2022-09-21T00:43:24;1.20;;;1.03;;
11761;SDS011;5938;47.098;15.474;2022-09-21T00:47:30;2.03;;;1.20;;
11761;SDS011;5938;47.098;15.474;2022-09-21T00:51:38;2.20;;;1.20;;
11761;SDS011;5938;47.098;15.474;2022-09-21T00:55:42;1.23;;;0.90;;
11761;SDS011;5938;47.098;15.474;2022-09-21T00:59:50;1.40;;;1.03;;
11761;SDS011;5938;47.098;15.474;2022-09-21T01:03:56;1.00;;;0.90;;
11761;SDS011;5938;47.098;15.474;2022-09-21T01:08:02;2.20;;;1.30;;
11761;SDS011;5938;47.098;15.474;2022-09-21T01:12:12;1.30;;;1.00;;
11761;SDS011;5938;47.098;15.474;2022-09-21T01:16:25;2.53;;;1.37;;
11761;SDS011;5938;47.098;15.474;2022-09-21T01:25:18;2.20;;;1.30;;
11761;SDS011;5938;47.098;15.474;2022-09-21T01:29:35;0.97;;;0.80;;
11761;SDS011;5938;47.098;15.474;2022-09-21T01:33:46;2.97;;;1.27;;
11761;SDS011;5938;47.098;15.474;2022-09-21T01:37:51;1.70;;;1.60;;
11761;SDS011;5938;47.098;15.474;2022-09-21T01:41:58;2.13;;;1.30;;
11761;SDS011;5938;47.098;15.474;2022-09-21T01:46:06;1.43;;;1.33;;
11761;SDS011;5938;47.098;15.474;2022-09-21T01:50:14;1.40;;;1.30;;
11761;SDS011;5938;47.098;15.474;2022-09-21T01:54:21;2.13;;;1.77;;
11761;SDS011;5938;47.098;15.474;2022-09-21T01:58:29;1.50;;;1.40;;
11761;SDS011;5938;47.098;15.474;2022-09-21T02:02:42;1.57;;;1.23;;
11761;SDS011;5938;47.098;15.474;2022-09-21T02:06:48;2.10;;;1.40;;
11761;SDS011;5938;47.098;15.474;2022-09-21T02:10:52;1.53;;;1.43;;
11761;SDS011;5938;47.098;15.474;2022-09-21T02:14:56;2.43;;;1.10;;
11761;SDS011;5938;47.098;15.474;2022-09-21T02:19:06;1.63;;;1.37;;
11761;SDS011;5938;47.098;15.474;2022-09-21T02:23:16;1.53;;;1.10;;
11761;SDS011;5938;47.098;15.474;2022-09-21T02:27:27;3.10;;;1.17;;
11761;SDS011;5938;47.098;15.474;2022-09-21T02:31:41;1.30;;;1.20;;
11761;SDS011;5938;47.098;15.474;2022-09-21T02:35:53;1.77;;;1.43;;
11761;SDS011;5938;47.098;15.474;2022-09-21T02:40:02;1.97;;;1.30;;
11761;SDS011;5938;47.098;15.474;2022-09-21T02:44:10;1.70;;;1.60;;
11761;SDS011;5938;47.098;15.474;2022-09-21T02:48:19;2.83;;;1.87;;
11761;SDS011;5938;47.098;15.474;2022-09-21T02:52:29;2.10;;;1.20;;
11761;SDS011;5938;47.098;15.474;2022-09-21T02:56:36;1.40;;;1.23;;
11761;SDS011;5938;47.098;15.474;2022-09-21T03:00:40;3.37;;;1.40;;
11761;SDS011;5938;47.098;15.474;2022-09-21T03:04:44;1.90;;;1.73;;
11761;SDS011;5938;47.098;15.474;2022-09-21T03:08:50;3.50;;;1.60;;
11761;SDS011;5938;47.098;15.474;2022-09-21T03:12:56;1.53;;;1.13;;
11761;SDS011;5938;47.098;15.474;2022-09-21T03:16:59;4.60;;;0.90;;
11761;SDS011;5938;47.098;15.474;2022-09-21T03:21:05;1.90;;;0.80;;
11761;SDS011;5938;47.098;15.474;2022-09-21T03:25:10;1.13;;;0.90;;
11761;SDS011;5938;47.098;15.474;2022-09-21T03:29:13;1.50;;;0.93;;
11761;SDS011;5938;47.098;15.474;2022-09-21T03:33:16;1.43;;;1.10;;
11761;SDS011;5938;47.098;15.474;2022-09-21T03:37:20;0.73;;;0.73;;
11761;SDS011;5938;47.098;15.474;2022-09-21T03:41:25;1.60;;;1.00;;
11761;SDS011;5938;47.098;15.474;2022-09-21T03:45:28;1.27;;;1.17;;
11761;SDS011;5938;47.098;15.474;2022-09-21T03:49:31;2.33;;;1.17;;
11761;SDS011;5938;47.098;15.474;2022-09-21T03:53:35;1.30;;;0.93;;
11761;SDS011;5938;47.098;15.474;2022-09-21T03:57:40;1.47;;;1.30;;
11761;SDS011;5938;47.098;15.474;2022-09-21T04:10:58;1.40;;;1.30;;
11761;SDS011;5938;47.098;15.474;2022-09-21T04:15:04;1.40;;;1.10;;
11761;SDS011;5938;47.098;15.474;2022-09-21T04:19:09;1.33;;;0.97;;
11761;SDS011;5938;47.098;15.474;2022-09-21T04:23:12;1.50;;;1.40;;
11761;SDS011;5938;47.098;15.474;2022-09-21T04:27:15;6.37;;;5.83;;
11761;SDS011;5938;47.098;15.474;2022-09-21T04:31:20;9.17;;;5.87;;
11761;SDS011;5938;47.098;15.474;2022-09-21T04:35:24;5.70;;;5.10;;
11761;SDS011;5938;47.098;15.474;2022-09-21T04:39:28;5.83;;;5.13;;
11761;SDS011;5938;47.098;15.474;2022-09-21T04:43:31;4.70;;;4.30;;
11761;SDS011;5938;47.098;15.474;2022-09-21T04:47:36;3.43;;;3.13;;
11761;SDS011;5938;47.098;15.474;2022-09-21T04:51:39;3.67;;;2.90;;
11761;SDS011;5938;47.098;15.474;2022-09-21T04:55:43;7.90;;;6.00;;
11761;SDS011;5938;47.098;15.474;2022-09-21T04:59:46;4.07;;;3.73;;
11761;SDS011;5938;47.098;15.474;2022-09-21T05:03:51;8.00;;;7.20;;
11761;SDS011;5938;47.098;15.474;2022-09-21T05:07:54;5.27;;;4.80;;
11761;SDS011;5938;47.098;15.474;2022-09-21T05:11:59;9.17;;;8.17;;
11761;SDS011;5938;47.098;15.474;2022-09-21T05:16:03;7.37;;;6.70;;
11761;SDS011;5938;47.098;15.474;2022-09-21T05:20:09;5.87;;;5.03;;
11761;SDS011;5938;47.098;15.474;2022-09-21T05:24:13;6.77;;;5.20;;
11761;SDS011;5938;47.098;15.474;2022-09-21T05:28:17;4.20;;;3.20;;
11761;SDS011;5938;47.098;15.474;2022-09-21T05:32:22;5.70;;;3.73;;
11761;SDS011;5938;47.098;15.474;2022-09-21T05:36:32;4.33;;;3.30;;
11761;SDS011;5938;47.098;15.474;2022-09-21T05:40:43;6.50;;;4.83;;
11761;SDS011;5938;47.098;15.474;2022-09-21T05:44:47;6.70;;;2.93;;
11761;SDS011;5938;47.098;15.474;2022-09-21T05:48:53;3.87;;;2.60;;
11761;SDS011;5938;47.098;15.474;2022-09-21T05:53:04;1.83;;;1.73;;
11761;SDS011;5938;47.098;15.474;2022-09-21T05:57:22;3.27;;;2.53;;
11761;SDS011;5938;47.098;15.474;2022-09-21T06:01:35;2.40;;;1.97;;
11761;SDS011;5938;47.098;15.474;2022-09-21T06:05:48;2.80;;;2.40;;
11761;SDS011;5938;47.098;15.474;2022-09-21T06:09:52;3.87;;;2.50;;
11761;SDS011;5938;47.098;15.474;2022-09-21T06:13:56;1.60;;;1.50;;
11761;SDS011;5938;47.098;15.474;2022-09-21T06:17:59;3.80;;;1.90;;
11761;SDS011;5938;47.098;15.474;2022-09-21T06:22:04;2.90;;;2.20;;
11761;SDS011;5938;47.098;15.474;2022-09-21T06:26:09;6.40;;;2.40;;
11761;SDS011;5938;47.098;15.474;2022-09-21T06:30:12;4.07;;;3.67;;
11761;SDS011;5938;47.098;15.474;2022-09-21T06:34:15;4.27;;;3.27;;
11761;SDS011;5938;47.098;15.474;2022-09-21T06:38:19;5.23;;;3.27;;
11761;SDS011;5938;47.098;15.474;2022-09-21T06:42:24;5.20;;;2.70;;
11761;SDS011;5938;47.098;15.474;2022-09-21T06:46:29;5.50;;;2.50;;
11761;SDS011;5938;47.098;15.474;2022-09-21T06:50:32;2.20;;;1.53;;
11761;SDS011;5938;47.098;15.474;2022-09-21T06:54:35;2.23;;;1.80;;
11761;SDS011;5938;47.098;15.474;2022-09-21T06:58:41;1.83;;;1.37;;
11761;SDS011;5938;47.098;15.474;2022-09-21T07:02:45;4.50;;;1.63;;
11761;SDS011;5938;47.098;15.474;2022-09-21T07:06:48;1.13;;;0.90;;
11761;SDS011;5938;47.098;15.474;2022-09-21T07:10:52;2.20;;;1.20;;
11761;SDS011;5938;47.098;15.474;2022-09-21T07:15:00;1.13;;;1.07;;
11761;SDS011;5938;47.098;15.474;2022-09-21T07:19:03;6.00;;;1.33;;
11761;SDS011;5938;47.098;15.474;2022-09-21T07:23:15;1.37;;;1.20;;
11761;SDS011;5938;47.098;15.474;2022-09-21T07:27:19;1.17;;;1.07;;
11761;SDS011;5938;47.098;15.474;2022-09-21T07:31:24;1.10;;;1.00;;
11761;SDS011;5938;47.098;15.474;2022-09-21T07:35:27;1.03;;;0.83;;
11761;SDS011;5938;47.098;15.474;2022-09-21T07:39:31;0.93;;;0.87;;
11761;SDS011;5938;47.098;15.474;2022-09-21T07:43:36;2.40;;;1.00;;
11761;SDS011;5938;47.098;15.474;2022-09-21T07:47:42;1.60;;;1.20;;
11761;SDS011;5938;47.098;15.474;2022-09-21T07:51:47;1.17;;;1.00;;
11761;SDS011;5938;47.098;15.474;2022-09-21T07:55:50;2.87;;;0.83;;
11761;SDS011;5938;47.098;15.474;2022-09-21T07:59:53;1.20;;;1.10;;
11761;SDS011;5938;47.098;15.474;2022-09-21T08:04:01;1.53;;;1.00;;
11761;SDS011;5938;47.098;15.474;2022-09-21T08:08:05;2.57;;;1.00;;
11761;SDS011;5938;47.098;15.474;2022-09-21T08:12:09;3.10;;;1.50;;
11761;SDS011;5938;47.098;15.474;2022-09-21T08:16:13;2.77;;;1.10;;
11761;SDS011;5938;47.098;15.474;2022-09-21T08:20:18;1.23;;;1.10;;
11761;SDS011;5938;47.098;15.474;2022-09-21T08:24:28;1.27;;;0.90;;
11761;SDS011;5938;47.098;15.474;2022-09-21T08:28:34;1.87;;;0.97;;
11761;SDS011;5938;47.098;15.474;2022-09-21T08:32:38;0.80;;;0.70;;
11761;SDS011;5938;47.098;15.474;2022-09-21T08:36:53;0.80;;;0.80;;
11761;SDS011;5938;47.098;15.474;2022-09-21T08:40:56;1.30;;;0.80;;
11761;SDS011;5938;47.098;15.474;2022-09-21T08:45:03;0.90;;;0.60;;
11761;SDS011;5938;47.098;15.474;2022-09-21T08:49:13;0.70;;;0.70;;
11761;SDS011;5938;47.098;15.474;2022-09-21T08:53:24;0.70;;;0.70;;
11761;SDS011;5938;47.098;15.474;2022-09-21T08:57:32;0.90;;;0.60;;
11761;SDS011;5938;47.098;15.474;2022-09-21T09:01:38;0.50;;;0.50;;
11761;SDS011;5938;47.098;15.474;2022-09-21T09:05:51;2.93;;;0.67;;
11761;SDS011;5938;47.098;15.474;2022-09-21T09:10:13;2.67;;;0.80;;
11761;SDS011;5938;47.098;15.474;2022-09-21T09:14:30;1.40;;;0.77;;
11761;SDS011;5938;47.098;15.474;2022-09-21T09:18:44;0.60;;;0.57;;
11761;SDS011;5938;47.098;15.474;2022-09-21T09:22:53;2.53;;;0.90;;
11761;SDS011;5938;47.098;15.474;2022-09-21T09:27:08;0.50;;;0.40;;
11761;SDS011;5938;47.098;15.474;2022-09-21T09:31:21;0.87;;;0.73;;
11761;SDS011;5938;47.098;15.474;2022-09-21T09:35:30;1.73;;;1.00;;
11761;SDS011;5938;47.098;15.474;2022-09-21T09:39:38;0.90;;;0.60;;
11761;SDS011;5938;47.098;15.474;2022-09-21T09:43:50;0.80;;;0.60;;
11761;SDS011;5938;47.098;15.474;2022-09-21T09:48:05;0.97;;;0.83;;
11761;SDS011;5938;47.098;15.474;2022-09-21T09:52:34;0.70;;;0.63;;
11761;SDS011;5938;47.098;15.474;2022-09-21T09:56:38;0.90;;;0.80;;
11761;SDS011;5938;47.098;15.474;2022-09-21T10:00:43;1.00;;;0.50;;
11761;SDS011;5938;47.098;15.474;2022-09-21T10:04:57;1.10;;;1.00;;
11761;SDS011;5938;47.098;15.474;2022-09-21T10:09:21;0.93;;;0.80;;
11761;SDS011;5938;47.098;15.474;2022-09-21T10:13:34;0.70;;;0.60;;
11761;SDS011;5938;47.098;15.474;2022-09-21T10:17:39;1.47;;;0.70;;
11761;SDS011;5938;47.098;15.474;2022-09-21T10:21:46;0.70;;;0.70;;
11761;SDS011;5938;47.098;15.474;2022-09-21T10:25:58;1.77;;;0.70;;
11761;SDS011;5938;47.098;15.474;2022-09-21T10:30:04;0.73;;;0.70;;
11761;SDS011;5938;47.098;15.474;2022-09-21T10:34:30;1.50;;;1.10;;
11761;SDS011;5938;47.098;15.474;2022-09-21T10:38:35;1.03;;;0.90;;
11761;SDS011;5938;47.098;15.474;2022-09-21T10:42:40;0.60;;;0.60;;
11761;SDS011;5938;47.098;15.474;2022-09-21T10:46:46;0.60;;;0.60;;
11761;SDS011;5938;47.098;15.474;2022-09-21T10:50:52;0.63;;;0.57;;
11761;SDS011;5938;47.098;15.474;2022-09-21T10:54:57;1.60;;;0.93;;
11761;SDS011;5938;47.098;15.474;2022-09-21T10:59:11;0.90;;;0.77;;
11761;SDS011;5938;47.098;15.474;2022-09-21T11:03:35;1.70;;;0.77;;
11761;SDS011;5938;47.098;15.474;2022-09-21T11:07:51;1.13;;;0.80;;
11761;SDS011;5938;47.098;15.474;2022-09-21T11:12:00;0.80;;;0.63;;
11761;SDS011;5938;47.098;15.474;2022-09-21T11:16:12;0.77;;;0.73;;
11761;SDS011;5938;47.098;15.474;2022-09-21T11:20:25;1.03;;;0.97;;
11761;SDS011;5938;47.098;15.474;2022-09-21T11:24:36;2.87;;;0.80;;
11761;SDS011;5938;47.098;15.474;2022-09-21T11:28:53;0.50;;;0.50;;
11761;SDS011;5938;47.098;15.474;2022-09-21T11:33:05;1.53;;;0.90;;
11761;SDS011;5938;47.098;15.474;2022-09-21T11:37:24;1.30;;;0.90;;
11761;SDS011;5938;47.098;15.474;2022-09-21T11:41:47;0.70;;;0.70;;
11761;SDS011;5938;47.098;15.474;2022-09-21T11:46:05;2.00;;;0.93;;
11761;SDS011;5938;47.098;15.474;2022-09-21T11:50:20;0.90;;;0.60;;
11761;SDS011;5938;47.098;15.474;2022-09-21T11:54:53;0.60;;;0.60;;
11761;SDS011;5938;47.098;15.474;2022-09-21T11:59:23;2.43;;;0.63;;
11761;SDS011;5938;47.098;15.474;2022-09-21T12:03:43;0.57;;;0.53;;
11761;SDS011;5938;47.098;15.474;2022-09-21T12:08:07;0.60;;;0.60;;
11761;SDS011;5938;47.098;15.474;2022-09-21T12:12:20;0.60;;;0.60;;
11761;SDS011;5938;47.098;15.474;2022-09-21T12:16:31;2.30;;;0.80;;
11761;SDS011;5938;47.098;15.474;2022-09-21T12:20:42;1.43;;;1.33;;
11761;SDS011;5938;47.098;15.474;2022-09-21T12:24:51;0.60;;;0.50;;
11761;SDS011;5938;47.098;15.474;2022-09-21T12:28:59;0.80;;;0.60;;
11761;SDS011;5938;47.098;15.474;2022-09-21T12:33:18;0.90;;;0.70;;
11761;SDS011;5938;47.098;15.474;2022-09-21T12:37:28;0.70;;;0.70;;
11761;SDS011;5938;47.098;15.474;2022-09-21T12:41:35;0.50;;;0.50;;
11761;SDS011;5938;47.098;15.474;2022-09-21T12:45:46;1.33;;;0.80;;
11761;SDS011;5938;47.098;15.474;2022-09-21T12:49:57;0.80;;;0.67;;
11761;SDS011;5938;47.098;15.474;2022-09-21T12:54:06;1.00;;;0.80;;
11761;SDS011;5938;47.098;15.474;2022-09-21T12:58:33;2.40;;;0.70;;
11761;SDS011;5938;47.098;15.474;2022-09-21T13:02:47;0.60;;;0.50;;
11761;SDS011;5938;47.098;15.474;2022-09-21T13:11:42;0.73;;;0.50;;
11761;SDS011;5938;47.098;15.474;2022-09-21T13:15:53;0.60;;;0.50;;
11761;SDS011;5938;47.098;15.474;2022-09-21T13:20:00;0.50;;;0.40;;
11761;SDS011;5938;47.098;15.474;2022-09-21T13:24:21;0.70;;;0.67;;
11761;SDS011;5938;47.098;15.474;2022-09-21T13:28:41;3.00;;;2.17;;
11761;SDS011;5938;47.098;15.474;2022-09-21T13:37:30;0.50;;;0.40;;
11761;SDS011;5938;47.098;15.474;2022-09-21T13:41:36;0.70;;;0.50;;
11761;SDS011;5938;47.098;15.474;2022-09-21T13:46:00;0.80;;;0.70;;
11761;SDS011;5938;47.098;15.474;2022-09-21T13:50:09;0.87;;;0.33;;
11761;SDS011;5938;47.098;15.474;2022-09-21T13:54:15;0.97;;;0.40;;
11761;SDS011;5938;47.098;15.474;2022-09-21T13:58:21;0.80;;;0.80;;
11761;SDS011;5938;47.098;15.474;2022-09-21T14:02:30;0.60;;;0.50;;
11761;SDS011;5938;47.098;15.474;2022-09-21T14:06:40;1.33;;;1.10;;
11761;SDS011;5938;47.098;15.474;2022-09-21T14:10:49;0.70;;;0.70;;
11761;SDS011;5938;47.098;15.474;2022-09-21T14:28:38;0.70;;;0.47;;
11761;SDS011;5938;47.098;15.474;2022-09-21T14:32:50;0.70;;;0.60;;
11761;SDS011;5938;47.098;15.474;2022-09-21T14:37:03;2.37;;;0.80;;
11761;SDS011;5938;47.098;15.474;2022-09-21T14:41:15;0.90;;;0.63;;
11761;SDS011;5938;47.098;15.474;2022-09-21T14:45:22;1.20;;;1.10;;
11761;SDS011;5938;47.098;15.474;2022-09-21T14:49:46;0.60;;;0.60;;
11761;SDS011;5938;47.098;15.474;2022-09-21T14:58:58;6.40;;;0.80;;
11761;SDS011;5938;47.098;15.474;2022-09-21T15:03:18;0.60;;;0.60;;
11761;SDS011;5938;47.098;15.474;2022-09-21T15:07:44;0.73;;;0.60;;
11761;SDS011;5938;47.098;15.474;2022-09-21T15:12:13;0.50;;;0.50;;
11761;SDS011;5938;47.098;15.474;2022-09-21T15:16:24;0.50;;;0.50;;
11761;SDS011;5938;47.098;15.474;2022-09-21T15:20:35;0.50;;;0.50;;
11761;SDS011;5938;47.098;15.474;2022-09-21T15:24:47;0.87;;;0.50;;
11761;SDS011;5938;47.098;15.474;2022-09-21T15:28:54;0.60;;;0.60;;
11761;SDS011;5938;47.098;15.474;2022-09-21T15:33:15;0.50;;;0.50;;
11761;SDS011;5938;47.098;15.474;2022-09-21T15:37:24;0.63;;;0.50;;
11761;SDS011;5938;47.098;15.474;2022-09-21T15:41:40;1.30;;;0.50;;
11761;SDS011;5938;47.098;15.474;2022-09-21T15:45:47;0.87;;;0.50;;
11761;SDS011;5938;47.098;15.474;2022-09-21T15:49:55;0.50;;;0.50;;
11761;SDS011;5938;47.098;15.474;2022-09-21T15:54:01;0.60;;;0.60;;
11761;SDS011;5938;47.098;15.474;2022-09-21T15:58:13;0.87;;;0.60;;
11761;SDS011;5938;47.098;15.474;2022-09-21T16:02:24;0.50;;;0.50;;
11761;SDS011;5938;47.098;15.474;2022-09-21T16:06:37;0.53;;;0.50;;
11761;SDS011;5938;47.098;15.474;2022-09-21T16:10:42;0.80;;;0.43;;
11761;SDS011;5938;47.098;15.474;2022-09-21T16:14:48;0.60;;;0.60;;
11761;SDS011;5938;47.098;15.474;2022-09-21T16:19:04;0.70;;;0.50;;
11761;SDS011;5938;47.098;15.474;2022-09-21T16:23:11;0.70;;;0.70;;
11761;SDS011;5938;47.098;15.474;2022-09-21T16:27:17;0.73;;;0.60;;
11761;SDS011;5938;47.098;15.474;2022-09-21T16:31:27;0.70;;;0.70;;
11761;SDS011;5938;47.098;15.474;2022-09-21T16:35:32;0.70;;;0.60;;
11761;SDS011;5938;47.098;15.474;2022-09-21T16:39:41;1.43;;;0.70;;
11761;SDS011;5938;47.098;15.474;2022-09-21T16:43:44;2.10;;;0.80;;
11761;SDS011;5938;47.098;15.474;2022-09-21T16:47:50;1.10;;;1.00;;
11761;SDS011;5938;47.098;15.474;2022-09-21T16:51:54;1.40;;;1.03;;
11761;SDS011;5938;47.098;15.474;2022-09-21T16:55:57;0.80;;;0.70;;
11761;SDS011;5938;47.098;15.474;2022-09-21T17:00:04;1.20;;;1.10;;
11761;SDS011;5938;47.098;15.474;2022-09-21T17:04:13;1.30;;;1.13;;
11761;SDS011;5938;47.098;15.474;2022-09-21T17:08:18;1.30;;;1.20;;
11761;SDS011;5938;47.098;15.474;2022-09-21T17:12:22;11.30;;;1.73;;
11761;SDS011;5938;47.098;15.474;2022-09-21T17:16:28;1.47;;;1.37;;
11761;SDS011;5938;47.098;15.474;2022-09-21T17:20:34;1.20;;;1.10;;
11761;SDS011;5938;47.098;15.474;2022-09-21T17:24:38;1.03;;;1.03;;
11761;SDS011;5938;47.098;15.474;2022-09-21T17:28:57;1.10;;;1.10;;
11761;SDS011;5938;47.098;15.474;2022-09-21T17:33:03;1.93;;;1.50;;
11761;SDS011;5938;47.098;15.474;2022-09-21T17:37:08;2.20;;;1.33;;
11761;SDS011;5938;47.098;15.474;2022-09-21T17:41:13;1.53;;;1.43;;
11761;SDS011;5938;47.098;15.474;2022-09-21T17:45:26;4.03;;;2.07;;
11761;SDS011;5938;47.098;15.474;2022-09-21T17:49:42;2.23;;;2.00;;
11761;SDS011;5938;47.098;15.474;2022-09-21T17:53:50;1.50;;;1.40;;
11761;SDS011;5938;47.098;15.474;2022-09-21T17:58:02;1.60;;;1.50;;
11761;SDS011;5938;47.098;15.474;2022-09-21T18:02:17;2.60;;;1.70;;
11761;SDS011;5938;47.098;15.474;2022-09-21T18:06:24;3.33;;;1.83;;
11761;SDS011;5938;47.098;15.474;2022-09-21T18:10:56;2.40;;;1.93;;
11761;SDS011;5938;47.098;15.474;2022-09-21T18:15:29;4.80;;;2.23;;
11761;SDS011;5938;47.098;15.474;2022-09-21T18:20:00;3.80;;;2.70;;
11761;SDS011;5938;47.098;15.474;2022-09-21T18:24:32;2.53;;;2.27;;
11761;SDS011;5938;47.098;15.474;2022-09-21T18:28:58;2.53;;;2.33;;
11761;SDS011;5938;47.098;15.474;2022-09-21T18:33:27;3.70;;;2.23;;
11761;SDS011;5938;47.098;15.474;2022-09-21T18:37:49;2.23;;;2.03;;
11761;SDS011;5938;47.098;15.474;2022-09-21T18:42:19;2.83;;;2.13;;
11761;SDS011;5938;47.098;15.474;2022-09-21T18:46:49;3.30;;;2.10;;
11761;SDS011;5938;47.098;15.474;2022-09-21T18:51:13;2.57;;;2.10;;
11761;SDS011;5938;47.098;15.474;2022-09-21T18:55:46;2.57;;;2.37;;
11761;SDS011;5938;47.098;15.474;2022-09-21T19:00:14;10.13;;;3.27;;
11761;SDS011;5938;47.098;15.474;2022-09-21T19:04:39;3.60;;;2.40;;
11761;SDS011;5938;47.098;15.474;2022-09-21T19:08:49;2.73;;;2.53;;
11761;SDS011;5938;47.098;15.474;2022-09-21T19:13:20;2.70;;;2.50;;
11761;SDS011;5938;47.098;15.474;2022-09-21T19:17:48;2.90;;;2.70;;
11761;SDS011;5938;47.098;15.474;2022-09-21T19:22:10;2.77;;;2.57;;
11761;SDS011;5938;47.098;15.474;2022-09-21T19:26:30;4.30;;;3.57;;
11761;SDS011;5938;47.098;15.474;2022-09-21T19:31:10;3.77;;;2.93;;
11761;SDS011;5938;47.098;15.474;2022-09-21T19:35:22;5.40;;;3.43;;
11761;SDS011;5938;47.098;15.474;2022-09-21T19:39:37;3.83;;;3.40;;
11761;SDS011;5938;47.098;15.474;2022-09-21T19:43:46;5.30;;;4.80;;
11761;SDS011;5938;47.098;15.474;2022-09-21T19:48:02;4.60;;;3.70;;
11761;SDS011;5938;47.098;15.474;2022-09-21T19:52:11;4.60;;;3.60;;
11761;SDS011;5938;47.098;15.474;2022-09-21T19:56:19;4.10;;;3.57;;
11761;SDS011;5938;47.098;15.474;2022-09-21T20:00:43;5.40;;;3.63;;
11761;SDS011;5938;47.098;15.474;2022-09-21T20:04:50;4.47;;;3.90;;
11761;SDS011;5938;47.098;15.474;2022-09-21T20:08:59;4.57;;;4.17;;
11761;SDS011;5938;47.098;15.474;2022-09-21T20:13:12;4.90;;;4.30;;
11761;SDS011;5938;47.098;15.474;2022-09-21T20:17:23;4.67;;;4.00;;
11761;SDS011;5938;47.098;15.474;2022-09-21T20:21:36;4.13;;;3.43;;
11761;SDS011;5938;47.098;15.474;2022-09-21T20:25:43;7.27;;;5.40;;
11761;SDS011;5938;47.098;15.474;2022-09-21T20:29:54;6.97;;;4.73;;
11761;SDS011;5938;47.098;15.474;2022-09-21T20:33:57;7.50;;;4.67;;
11761;SDS011;5938;47.098;15.474;2022-09-21T20:38:00;5.97;;;4.63;;
11761;SDS011;5938;47.098;15.474;2022-09-21T20:42:04;4.50;;;4.20;;
11761;SDS011;5938;47.098;15.474;2022-09-21T20:46:09;6.60;;;5.10;;
11761;SDS011;5938;47.098;15.474;2022-09-21T20:50:13;4.70;;;4.30;;
11761;SDS011;5938;47.098;15.474;2022-09-21T20:54:16;4.30;;;3.90;;
11761;SDS011;5938;47.098;15.474;2022-09-21T20:58:19;3.57;;;3.27;;
11761;SDS011;5938;47.098;15.474;2022-09-21T21:02:25;4.10;;;3.57;;
11761;SDS011;5938;47.098;15.474;2022-09-21T21:06:28;4.30;;;3.77;;
11761;SDS011;5938;47.098;15.474;2022-09-21T21:10:32;4.20;;;3.80;;
11761;SDS011;5938;47.098;15.474;2022-09-21T21:14:37;3.40;;;3.10;;
11761;SDS011;5938;47.098;15.474;2022-09-21T21:18:41;5.00;;;3.70;;
11761;SDS011;5938;47.098;15.474;2022-09-21T21:22:47;5.03;;;4.10;;
11761;SDS011;5938;47.098;15.474;2022-09-21T21:26:51;3.87;;;3.37;;
11761;SDS011;5938;47.098;15.474;2022-09-21T21:31:03;4.07;;;3.57;;
11761;SDS011;5938;47.098;15.474;2022-09-21T21:35:09;4.77;;;3.70;;
11761;SDS011;5938;47.098;15.474;2022-09-21T21:39:12;4.67;;;3.33;;
11761;SDS011;5938;47.098;15.474;2022-09-21T21:43:15;4.40;;;3.40;;
11761;SDS011;5938;47.098;15.474;2022-09-21T21:47:18;3.57;;;3.27;;
11761;SDS011;5938;47.098;15.474;2022-09-21T21:51:41;3.30;;;3.00;;
11761;SDS011;5938;47.098;15.474;2022-09-21T21:55:45;4.53;;;3.60;;
11761;SDS011;5938;47.098;15.474;2022-09-21T21:59:48;3.67;;;3.37;;
11761;SDS011;5938;47.098;15.474;2022-09-21T22:03:52;3.80;;;3.37;;
11761;SDS011;5938;47.098;15.474;2022-09-21T22:07:57;4.00;;;2.97;;
11761;SDS011;5938;47.098;15.474;2022-09-21T22:12:02;4.40;;;2.60;;
11761;SDS011;5938;47.098;15.474;2022-09-21T22:16:06;3.43;;;3.13;;
11761;SDS011;5938;47.098;15.474;2022-09-21T22:20:12;3.47;;;3.17;;
11761;SDS011;5938;47.098;15.474;2022-09-21T22:24:17;4.07;;;2.90;;
11761;SDS011;5938;47.098;15.474;2022-09-21T22:28:21;3.23;;;2.67;;
11761;SDS011;5938;47.098;15.474;2022-09-21T22:32:24;3.27;;;2.77;;
11761;SDS011;5938;47.098;15.474;2022-09-21T22:36:28;3.37;;;2.77;;
11761;SDS011;5938;47.098;15.474;2022-09-21T22:40:34;3.90;;;2.80;;
11761;SDS011;5938;47.098;15.474;2022-09-21T22:44:37;5.13;;;3.50;;
11761;SDS011;5938;47.098;15.474;2022-09-21T22:48:41;4.13;;;3.30;;
11761;SDS011;5938;47.098;15.474;2022-09-21T22:52:44;3.40;;;2.70;;
11761;SDS011;5938;47.098;15.474;2022-09-21T22:56:49;3.20;;;2.93;;
11761;SDS011;5938;47.098;15.474;2022-09-21T23:00:52;3.33;;;2.87;;
11761;SDS011;5938;47.098;15.474;2022-09-21T23:05:07;2.90;;;2.50;;
11761;SDS011;5938;47.098;15.474;2022-09-21T23:09:12;2.70;;;2.50;;
11761;SDS011;5938;47.098;15.474;2022-09-21T23:13:19;2.80;;;2.20;;
11761;SDS011;5938;47.098;15.474;2022-09-21T23:17:23;2.60;;;2.07;;
11761;SDS011;5938;47.098;15.474;2022-09-21T23:21:27;2.97;;;2.30;;
11761;SDS011;5938;47.098;15.474;2022-09-21T23:25:32;4.30;;;2.20;;
11761;SDS011;5938;47.098;15.474;2022-09-21T23:29:36;2.77;;;2.23;;
11761;SDS011;5938;47.098;15.474;2022-09-21T23:33:40;2.23;;;2.03;;
11761;SDS011;5938;47.098;15.474;2022-09-21T23:37:44;2.37;;;1.90;;
11761;SDS011;5938;47.098;15.474;2022-09-21T23:41:47;2.60;;;2.40;;
11761;SDS011;5938;47.098;15.474;2022-09-21T23:45:52;3.43;;;2.07;;
11761;SDS011;5938;47.098;15.474;2022-09-21T23:49:56;2.27;;;1.77;;
11761;SDS011;5938;47.098;15.474;2022-09-21T23:53:59;4.33;;;2.13;;
11761;SDS011;5938;47.098;15.474;2022-09-21T23:58:03;2.80;;;2.10;;
